Time;durP1;ratioP1;P1;durP2;ratioP2;P2;SDS_P1;SDS_P2;PMS_P1;PMS_P2;Temp;Humidity;BMP_temperature;BMP_pressure;BME280_temperature;BME280_humidity;BME280_pressure;Samples;Min_cycle;Max_cycle;Signal;HPM_P1;HPM_P2
2020/12/11 00:00:23;;;;;;;29.52;18.27;;;2.80;99.90;;;;;;5022425;28;20065;-70
2020/12/11 00:02:50;;;;;;;27.83;18.48;;;2.80;99.90;;;;;;5024258;28;20489;-66
2020/12/11 00:05:16;;;;;;;27.85;18.75;;;2.80;99.90;;;;;;5020135;28;20050;-69
2020/12/11 00:07:45;;;;;;;37.38;19.48;;;2.80;99.90;;;;;;5023593;28;20217;-67
2020/12/11 00:10:13;;;;;;;32.40;19.73;;;2.80;99.90;;;;;;5022673;28;20053;-69
2020/12/11 00:12:40;;;;;;;32.10;20.58;;;2.80;99.90;;;;;;5026152;28;20041;-70
2020/12/11 00:15:09;;;;;;;40.45;20.23;;;2.80;99.90;;;;;;5027045;28;20156;-76
2020/12/11 00:17:36;;;;;;;32.70;20.77;;;2.80;99.90;;;;;;5022340;28;20041;-68
2020/12/11 00:20:05;;;;;;;29.38;18.88;;;2.80;99.90;;;;;;5017438;28;20310;-72
2020/12/11 00:22:32;;;;;;;27.80;19.60;;;2.80;99.90;;;;;;5021939;28;20068;-72
2020/12/11 00:24:58;;;;;;;30.20;20.60;;;2.80;99.90;;;;;;5020687;28;20085;-70
2020/12/11 00:27:24;;;;;;;35.83;21.02;;;2.80;99.90;;;;;;5023683;28;20053;-75
2020/12/11 00:29:51;;;;;;;33.60;20.88;;;2.80;99.90;;;;;;5020155;28;20916;-75
2020/12/11 00:32:17;;;;;;;33.65;21.45;;;2.80;99.90;;;;;;5017283;28;20045;-73
2020/12/11 00:34:44;;;;;;;36.63;19.58;;;2.80;99.90;;;;;;5020687;28;20049;-70
2020/12/11 00:37:11;;;;;;;40.72;21.73;;;2.80;99.90;;;;;;5021284;28;20057;-69
2020/12/11 00:39:37;;;;;;;31.90;21.58;;;2.70;99.90;;;;;;5024628;28;20815;-75
2020/12/11 00:42:04;;;;;;;31.15;19.30;;;2.80;99.90;;;;;;5016670;28;20068;-74
2020/12/11 00:44:30;;;;;;;31.95;19.73;;;2.80;99.90;;;;;;5024843;28;20040;-69
2020/12/11 00:47:02;;;;;;;33.13;18.67;;;2.80;99.90;;;;;;5023081;28;20163;-67
2020/12/11 00:49:29;;;;;;;33.75;19.38;;;2.80;99.90;;;;;;5027356;28;20053;-73
2020/12/11 00:51:55;;;;;;;32.38;21.40;;;2.80;99.90;;;;;;5018342;28;20523;-69
2020/12/11 00:54:25;;;;;;;28.77;20.33;;;2.80;99.90;;;;;;5020487;28;20096;-71
2020/12/11 00:56:51;;;;;;;33.25;19.70;;;2.80;99.90;;;;;;5021550;28;20071;-77
2020/12/11 00:59:18;;;;;;;31.25;22.33;;;2.80;99.90;;;;;;5027167;28;20041;-72
2020/12/11 01:01:44;;;;;;;28.52;18.70;;;2.80;99.90;;;;;;5023812;28;20148;-73
2020/12/11 01:04:11;;;;;;;31.08;19.15;;;2.80;99.90;;;;;;5023498;28;20061;-67
2020/12/11 01:06:38;;;;;;;34.80;19.25;;;2.80;99.90;;;;;;5027312;28;20058;-75
2020/12/11 01:09:05;;;;;;;31.38;19.75;;;2.80;99.90;;;;;;5022863;28;20052;-70
2020/12/11 01:11:31;;;;;;;27.08;17.50;;;2.80;99.90;;;;;;5030053;28;20064;-72
2020/12/11 01:13:58;;;;;;;38.67;22.50;;;2.80;99.90;;;;;;5023050;28;20045;-77
2020/12/11 01:16:24;;;;;;;37.15;21.05;;;2.80;99.90;;;;;;5024679;28;20045;-72
2020/12/11 01:18:54;;;;;;;39.47;21.57;;;2.80;99.90;;;;;;5028055;28;20438;-76
2020/12/11 01:21:22;;;;;;;32.35;21.13;;;2.80;99.90;;;;;;5024561;28;21252;-76
2020/12/11 01:23:48;;;;;;;33.13;21.42;;;2.80;99.90;;;;;;5025929;28;20114;-73
2020/12/11 01:26:15;;;;;;;35.75;23.08;;;2.80;99.90;;;;;;5028094;28;20076;-70
2020/12/11 01:28:41;;;;;;;33.58;23.00;;;2.80;99.90;;;;;;5029600;28;20072;-72
2020/12/11 01:31:07;;;;;;;36.58;22.83;;;2.80;99.90;;;;;;5026330;28;20150;-71
2020/12/11 01:33:34;;;;;;;37.25;24.83;;;2.80;99.90;;;;;;5026599;28;21031;-77
2020/12/11 01:36:01;;;;;;;45.55;25.88;;;2.80;99.90;;;;;;5019257;28;20053;-71
2020/12/11 01:38:27;;;;;;;32.83;22.08;;;2.80;99.90;;;;;;5024156;28;20087;-72
2020/12/11 01:40:53;;;;;;;38.35;21.10;;;2.80;99.90;;;;;;5022286;28;20151;-68
2020/12/11 01:43:20;;;;;;;41.05;24.45;;;2.80;99.90;;;;;;5029648;28;20089;-71
2020/12/11 01:45:47;;;;;;;35.30;24.42;;;2.70;99.90;;;;;;5025182;28;20049;-71
2020/12/11 01:48:15;;;;;;;50.08;25.45;;;2.70;99.90;;;;;;5029377;28;20052;-71
2020/12/11 01:50:41;;;;;;;33.25;21.55;;;2.70;99.90;;;;;;5024216;28;20583;-76
2020/12/11 01:53:09;;;;;;;35.47;24.27;;;2.70;99.90;;;;;;5027512;28;20077;-72
2020/12/11 01:55:39;;;;;;;35.72;21.65;;;2.70;99.90;;;;;;5023535;28;20068;-70
2020/12/11 01:58:19;;;;;;;41.88;24.13;;;2.70;99.90;;;;;;5023536;28;20049;-71
2020/12/11 02:00:47;;;;;;;36.40;22.58;;;2.70;99.90;;;;;;5022425;28;20053;-70
2020/12/11 02:03:15;;;;;;;44.75;24.48;;;2.70;99.90;;;;;;5025510;28;20519;-71
2020/12/11 02:05:41;;;;;;;35.53;22.00;;;2.60;99.90;;;;;;5024492;28;20061;-70
2020/12/11 02:08:08;;;;;;;42.60;26.60;;;2.70;99.90;;;;;;5024688;28;20060;-71
2020/12/11 02:10:53;;;;;;;40.58;23.00;;;2.60;99.90;;;;;;5026232;28;20176;-67
2020/12/11 02:13:20;;;;;;;42.72;24.05;;;2.60;99.90;;;;;;5024148;28;20045;-71
2020/12/11 02:15:46;;;;;;;39.60;23.40;;;2.60;99.90;;;;;;5025648;28;20151;-70
2020/12/11 02:18:13;;;;;;;36.88;26.38;;;2.60;99.90;;;;;;5020225;28;20050;-75
2020/12/11 02:20:39;;;;;;;38.08;25.17;;;2.60;99.90;;;;;;5030743;28;20741;-73
2020/12/11 02:23:06;;;;;;;41.70;25.55;;;2.60;99.90;;;;;;5025371;28;20041;-71
2020/12/11 02:25:32;;;;;;;37.42;25.00;;;2.60;99.90;;;;;;5026255;28;20068;-73
2020/12/11 02:27:59;;;;;;;40.42;24.77;;;2.60;99.90;;;;;;5020754;28;20466;-74
2020/12/11 02:30:25;;;;;;;41.42;24.17;;;2.60;99.90;;;;;;5022565;28;20041;-73
2020/12/11 02:32:51;;;;;;;38.90;24.02;;;2.60;99.90;;;;;;5023433;28;20576;-73
2020/12/11 02:35:18;;;;;;;39.80;23.08;;;2.60;99.90;;;;;;5025815;28;20692;-72
2020/12/11 02:37:44;;;;;;;39.13;25.05;;;2.60;99.90;;;;;;5020646;28;20102;-68
2020/12/11 02:40:11;;;;;;;39.50;24.30;;;2.50;99.90;;;;;;5026313;28;20038;-70
2020/12/11 02:42:37;;;;;;;37.30;23.27;;;2.50;99.90;;;;;;5021534;28;20105;-70
2020/12/11 02:45:04;;;;;;;39.45;23.08;;;2.60;99.90;;;;;;5025460;28;20041;-71
2020/12/11 02:47:32;;;;;;;40.05;24.00;;;2.50;99.90;;;;;;5024332;28;20755;-69
2020/12/11 02:50:02;;;;;;;40.72;25.30;;;2.50;99.90;;;;;;5018807;28;20042;-69
2020/12/11 02:52:29;;;;;;;32.40;21.02;;;2.50;99.90;;;;;;5021661;28;20157;-73
2020/12/11 02:54:55;;;;;;;42.50;24.02;;;2.50;99.90;;;;;;5021526;28;20053;-68
2020/12/11 02:57:22;;;;;;;44.05;25.23;;;2.50;99.90;;;;;;5031106;28;20045;-71
2020/12/11 02:59:48;;;;;;;38.55;24.90;;;2.50;99.90;;;;;;5018318;28;20052;-73
2020/12/11 03:02:15;;;;;;;38.58;23.80;;;2.50;99.90;;;;;;5025303;28;20045;-66
2020/12/11 03:04:42;;;;;;;40.75;22.67;;;2.50;99.90;;;;;;5024180;28;20061;-70
2020/12/11 03:07:08;;;;;;;39.75;22.40;;;2.50;99.90;;;;;;5023693;28;20798;-69
2020/12/11 03:09:35;;;;;;;40.95;26.02;;;2.50;99.90;;;;;;5023553;28;20057;-69
2020/12/11 03:12:01;;;;;;;42.63;26.73;;;2.50;99.90;;;;;;5023211;28;20072;-73
2020/12/11 03:14:28;;;;;;;36.33;24.52;;;2.50;99.90;;;;;;5024281;28;20056;-72
2020/12/11 03:16:54;;;;;;;37.83;25.42;;;2.50;99.90;;;;;;5025484;28;20063;-76
2020/12/11 03:19:21;;;;;;;41.28;26.58;;;2.50;99.90;;;;;;5026033;28;20057;-69
2020/12/11 03:21:48;;;;;;;38.72;24.77;;;2.50;99.90;;;;;;5019576;28;20131;-72
2020/12/11 03:24:14;;;;;;;37.63;25.08;;;2.50;99.90;;;;;;5025350;28;20049;-70
2020/12/11 03:26:41;;;;;;;40.97;24.35;;;2.50;99.90;;;;;;5024810;28;20438;-72
2020/12/11 03:29:07;;;;;;;39.60;24.70;;;2.50;99.90;;;;;;5027014;28;20652;-71
2020/12/11 03:31:33;;;;;;;47.60;28.35;;;2.50;99.90;;;;;;5021277;28;21069;-77
2020/12/11 03:34:00;;;;;;;53.53;25.38;;;2.50;99.90;;;;;;5022132;28;20045;-70
2020/12/11 03:36:26;;;;;;;38.42;24.38;;;2.50;99.90;;;;;;5021453;28;20069;-71
2020/12/11 03:38:53;;;;;;;38.97;25.08;;;2.50;99.90;;;;;;5021478;28;20150;-73
2020/12/11 03:41:19;;;;;;;45.78;26.23;;;2.50;99.90;;;;;;5022813;28;20052;-73
2020/12/11 03:43:45;;;;;;;37.28;24.30;;;2.50;99.90;;;;;;5019282;28;20052;-69
2020/12/11 03:46:21;;;;;;;44.05;26.30;;;2.40;99.90;;;;;;5020193;28;20459;-69
2020/12/11 03:48:49;;;;;;;37.90;22.13;;;2.50;99.90;;;;;;5023762;28;20171;-75
2020/12/11 03:51:18;;;;;;;39.30;25.50;;;2.40;99.90;;;;;;5021627;28;20045;-71
2020/12/11 03:53:46;;;;;;;41.30;27.92;;;2.50;99.90;;;;;;5023440;28;20080;-68
2020/12/11 03:56:16;;;;;;;42.53;25.63;;;2.40;99.90;;;;;;5022346;28;20092;-67
2020/12/11 03:58:43;;;;;;;;;;;2.40;99.90;;;;;;5023199;28;20052;-72
2020/12/11 04:01:11;;;;;;;39.08;24.15;;;2.40;99.90;;;;;;5025563;28;20023;-72
2020/12/11 04:03:38;;;;;;;49.78;27.77;;;2.40;99.90;;;;;;5021483;28;20171;-70
2020/12/11 04:06:09;;;;;;;36.50;24.33;;;2.40;99.90;;;;;;5017932;28;20137;-73
2020/12/11 04:08:36;;;;;;;42.10;25.95;;;2.40;99.90;;;;;;5018334;28;20048;-66
2020/12/11 04:11:05;;;;;;;42.40;26.15;;;2.40;99.90;;;;;;5027256;28;20397;-72
2020/12/11 04:13:31;;;;;;;43.85;27.77;;;2.40;99.90;;;;;;5023013;28;20283;-70
2020/12/11 04:15:58;;;;;;;44.75;26.23;;;2.40;99.90;;;;;;5025013;28;20685;-73
2020/12/11 04:18:25;;;;;;;38.30;25.55;;;2.40;99.90;;;;;;5025124;28;20045;-65
2020/12/11 04:20:52;;;;;;;38.72;25.38;;;2.40;99.90;;;;;;5021341;28;20053;-74
2020/12/11 04:23:19;;;;;;;39.25;26.20;;;2.40;99.90;;;;;;5025655;28;20064;-70
2020/12/11 04:25:45;;;;;;;44.15;25.92;;;2.40;99.90;;;;;;5020478;28;20080;-75
2020/12/11 04:28:12;;;;;;;47.20;27.33;;;2.40;99.90;;;;;;5027581;28;20396;-68
2020/12/11 04:30:38;;;;;;;42.05;25.98;;;2.40;99.90;;;;;;5022106;28;20048;-69
2020/12/11 04:33:05;;;;;;;48.53;27.88;;;2.40;99.90;;;;;;5025992;28;20041;-69
2020/12/11 04:35:33;;;;;;;41.85;26.17;;;2.40;99.90;;;;;;5026001;28;20212;-73
2020/12/11 04:38:00;;;;;;;42.78;26.60;;;2.40;99.90;;;;;;5026546;28;20392;-72
2020/12/11 04:40:26;;;;;;;46.60;28.00;;;2.40;99.90;;;;;;5026404;28;20081;-69
2020/12/11 04:42:54;;;;;;;48.13;29.35;;;2.40;99.90;;;;;;5026925;28;20037;-69
2020/12/11 04:45:22;;;;;;;47.78;29.23;;;2.40;99.90;;;;;;5027372;28;20064;-73
2020/12/11 04:47:52;;;;;;;43.78;26.23;;;2.40;99.90;;;;;;5022620;28;20049;-70
2020/12/11 04:50:19;;;;;;;47.05;28.38;;;2.50;99.90;;;;;;5027515;28;20051;-69
2020/12/11 04:52:47;;;;;;;46.30;29.58;;;2.50;99.90;;;;;;5025484;28;20114;-73
2020/12/11 04:55:21;;;;;;;43.42;27.15;;;2.50;99.90;;;;;;5026508;28;20064;-68
2020/12/11 04:57:48;;;;;;;50.35;29.83;;;2.50;99.90;;;;;;5023660;28;20049;-74
2020/12/11 05:00:16;;;;;;;38.00;27.38;;;2.50;99.90;;;;;;5026500;28;20200;-69
2020/12/11 05:02:44;;;;;;;48.20;28.70;;;2.50;99.90;;;;;;5021865;28;20184;-71
2020/12/11 05:05:12;;;;;;;41.78;28.25;;;2.50;99.90;;;;;;5026502;28;20092;-66
2020/12/11 05:07:39;;;;;;;49.38;28.27;;;2.50;99.90;;;;;;5019415;28;20060;-69
2020/12/11 05:10:07;;;;;;;44.90;27.33;;;2.50;99.90;;;;;;5024356;28;20448;-73
2020/12/11 05:12:34;;;;;;;48.03;28.63;;;2.50;99.90;;;;;;5027319;28;20126;-69
2020/12/11 05:15:09;;;;;;;45.83;28.05;;;2.50;99.90;;;;;;5031858;28;20107;-67
2020/12/11 05:17:40;;;;;;;45.47;27.02;;;2.40;99.90;;;;;;5028092;28;20041;-70
2020/12/11 05:20:11;;;;;;;39.63;26.70;;;2.50;99.90;;;;;;5023049;28;20138;-74
2020/12/11 05:23:07;;;;;;;42.53;27.30;;;2.50;99.90;;;;;;5026580;28;20056;-69
2020/12/11 05:25:34;;;;;;;48.33;28.08;;;2.40;99.90;;;;;;5025400;28;20053;-67
2020/12/11 05:28:00;;;;;;;42.83;26.92;;;2.40;99.90;;;;;;5024018;28;20053;-75
2020/12/11 05:30:27;;;;;;;48.58;26.40;;;2.40;99.90;;;;;;5026584;28;20436;-75
2020/12/11 05:32:57;;;;;;;46.05;29.25;;;2.40;99.90;;;;;;5022281;28;20045;-66
2020/12/11 05:35:26;;;;;;;42.45;26.45;;;2.40;99.90;;;;;;5022451;28;20057;-74
2020/12/11 05:38:05;;;;;;;40.03;26.58;;;2.40;99.90;;;;;;5021474;28;20052;-67
2020/12/11 05:40:35;;;;;;;44.33;27.38;;;2.40;99.90;;;;;;5028420;28;20059;-69
2020/12/11 05:43:15;;;;;;;39.42;26.45;;;2.40;99.90;;;;;;5025972;28;20049;-68
2020/12/11 05:45:52;;;;;;;37.65;23.92;;;2.40;99.90;;;;;;5021932;28;20693;-69
2020/12/11 05:48:24;;;;;;;36.95;23.75;;;2.30;99.90;;;;;;5024772;28;20770;-70
2020/12/11 05:50:52;;;;;;;33.70;23.98;;;2.40;99.90;;;;;;5024763;28;20476;-73
2020/12/11 05:53:19;;;;;;;36.20;24.08;;;2.40;99.90;;;;;;5028025;28;20056;-70
2020/12/11 05:55:46;;;;;;;33.45;22.33;;;2.30;99.90;;;;;;5024417;28;20049;-69
2020/12/11 05:58:12;;;;;;;37.67;23.13;;;2.30;99.90;;;;;;5023961;28;20123;-73
2020/12/11 06:00:41;;;;;;;36.30;22.88;;;2.30;99.90;;;;;;5025621;28;20056;-71
2020/12/11 06:03:08;;;;;;;27.85;21.15;;;2.30;99.90;;;;;;5027710;28;20501;-74
2020/12/11 06:05:38;;;;;;;33.80;23.75;;;2.30;99.90;;;;;;5024061;28;20049;-72
2020/12/11 06:08:12;;;;;;;28.02;20.13;;;2.30;99.90;;;;;;5026919;28;20045;-70
2020/12/11 06:10:40;;;;;;;29.05;20.67;;;2.30;99.90;;;;;;5028461;28;20041;-75
2020/12/11 06:13:07;;;;;;;28.38;20.35;;;2.20;99.90;;;;;;5024193;28;20206;-71
2020/12/11 06:15:45;;;;;;;32.22;22.38;;;2.30;99.90;;;;;;5023904;28;20053;-68
2020/12/11 06:18:27;;;;;;;31.55;20.10;;;2.30;99.90;;;;;;5029287;28;21062;-73
2020/12/11 06:20:54;;;;;;;28.30;19.27;;;2.30;99.90;;;;;;5023353;28;20076;-73
2020/12/11 06:23:31;;;;;;;24.45;18.63;;;2.30;99.90;;;;;;5025913;28;20077;-70
2020/12/11 06:25:59;;;;;;;28.70;17.27;;;2.20;99.90;;;;;;5025566;28;20046;-68
2020/12/11 06:28:34;;;;;;;26.77;17.45;;;2.30;99.90;;;;;;5028293;28;20041;-69
2020/12/11 06:31:22;;;;;;;27.58;18.25;;;2.30;99.90;;;;;;5027756;28;20057;-70
2020/12/11 06:33:55;;;;;;;20.90;14.90;;;2.30;99.90;;;;;;5024821;28;20044;-66
2020/12/11 06:36:22;;;;;;;22.60;17.58;;;2.30;99.90;;;;;;5025981;28;20402;-67
2020/12/11 06:39:08;;;;;;;24.25;15.77;;;2.30;99.90;;;;;;5022378;28;20069;-70
2020/12/11 06:41:35;;;;;;;20.80;14.95;;;2.30;99.90;;;;;;5024159;28;20299;-68
2020/12/11 06:44:10;;;;;;;23.05;15.95;;;2.30;99.90;;;;;;5023281;28;21059;-69
2020/12/11 06:46:37;;;;;;;20.02;14.75;;;2.30;99.90;;;;;;5025024;28;20153;-69
2020/12/11 06:49:22;;;;;;;18.40;14.50;;;2.30;99.90;;;;;;5022903;28;20049;-65
2020/12/11 06:51:48;;;;;;;21.25;14.73;;;2.30;99.90;;;;;;5025942;28;20045;-68
2020/12/11 06:54:35;;;;;;;21.15;14.63;;;2.30;99.90;;;;;;5026096;28;20044;-69
2020/12/11 06:57:01;;;;;;;19.48;15.32;;;2.30;99.90;;;;;;5018385;28;20041;-68
2020/12/11 06:59:36;;;;;;;17.27;13.15;;;2.30;99.90;;;;;;5025928;28;20489;-70
2020/12/11 07:02:03;;;;;;;18.67;14.32;;;2.30;99.90;;;;;;5020136;28;20048;-73
2020/12/11 07:04:40;;;;;;;22.42;14.70;;;2.30;99.90;;;;;;5021119;28;20052;-68
2020/12/11 07:07:07;;;;;;;20.73;15.10;;;2.30;99.90;;;;;;5022724;28;20068;-69
2020/12/11 07:09:44;;;;;;;18.83;13.30;;;2.30;99.90;;;;;;5022058;28;20492;-69
2020/12/11 07:12:12;;;;;;;18.00;13.60;;;2.30;99.90;;;;;;5026289;28;20818;-69
2020/12/11 07:14:46;;;;;;;20.33;13.40;;;2.30;99.90;;;;;;5024266;28;20041;-67
2020/12/11 07:17:24;;;;;;;21.83;16.30;;;2.30;99.90;;;;;;5023523;28;20053;-72
2020/12/11 07:19:53;;;;;;;20.52;14.80;;;2.20;99.90;;;;;;5020817;28;20175;-72
2020/12/11 07:22:20;;;;;;;19.80;14.30;;;2.20;99.90;;;;;;5041117;28;20052;-70
2020/12/11 07:24:48;;;;;;;23.23;15.00;;;2.20;99.90;;;;;;5022662;28;20128;-69
2020/12/11 07:27:15;;;;;;;19.60;14.10;;;2.20;99.90;;;;;;5026546;28;20123;-68
2020/12/11 07:29:48;;;;;;;18.35;15.50;;;2.20;99.90;;;;;;5025627;28;20131;-72
2020/12/11 07:32:22;;;;;;;21.15;15.80;;;2.20;99.90;;;;;;5018437;28;20563;-71
2020/12/11 07:34:50;;;;;;;23.30;17.15;;;2.20;99.90;;;;;;5013265;28;20052;-69
2020/12/11 07:37:17;;;;;;;20.13;16.02;;;2.30;99.90;;;;;;5021210;28;20046;-69
2020/12/11 07:39:43;;;;;;;25.27;17.70;;;2.20;99.90;;;;;;5025785;28;20053;-66
2020/12/11 07:42:10;;;;;;;25.40;18.70;;;2.30;99.90;;;;;;5020262;28;20533;-68
2020/12/11 07:44:38;;;;;;;22.25;16.35;;;2.30;99.90;;;;;;5022978;28;20041;-73
2020/12/11 07:47:11;;;;;;;18.77;13.90;;;2.20;99.90;;;;;;5023186;28;20054;-66
2020/12/11 07:49:44;;;;;;;23.25;17.05;;;2.20;99.90;;;;;;5027067;28;20080;-69
2020/12/11 07:52:13;;;;;;;24.80;16.95;;;2.30;99.90;;;;;;5022868;28;20045;-68
2020/12/11 07:54:43;;;;;;;24.27;16.77;;;2.20;99.90;;;;;;5029566;28;20048;-70
2020/12/11 07:57:10;;;;;;;22.90;17.27;;;2.20;99.90;;;;;;5025737;28;20098;-70
2020/12/11 07:59:37;;;;;;;23.35;17.27;;;2.30;99.90;;;;;;5028873;28;20374;-71
2020/12/11 08:02:03;;;;;;;29.20;20.70;;;2.20;99.90;;;;;;5023284;28;20052;-73
2020/12/11 08:04:35;;;;;;;23.40;17.35;;;2.30;99.90;;;;;;5027446;28;20683;-71
2020/12/11 08:07:03;;;;;;;24.63;18.65;;;2.30;99.90;;;;;;5020852;28;20132;-72
2020/12/11 08:09:31;;;;;;;26.63;19.50;;;2.20;99.90;;;;;;5027267;28;20048;-73
2020/12/11 08:12:11;;;;;;;25.90;19.25;;;2.20;99.90;;;;;;5024343;28;20047;-68
2020/12/11 08:14:39;;;;;;;29.50;18.42;;;2.20;99.90;;;;;;5027921;28;20156;-73
2020/12/11 08:17:11;;;;;;;25.80;20.02;;;2.20;99.90;;;;;;5030133;28;20626;-72
2020/12/11 08:19:38;;;;;;;26.08;18.58;;;2.20;99.90;;;;;;5027161;28;20052;-66
2020/12/11 08:22:16;;;;;;;25.00;19.15;;;2.20;99.90;;;;;;5031056;28;23378;-72
2020/12/11 08:24:44;;;;;;;23.23;18.08;;;2.30;99.90;;;;;;5018826;28;20048;-66
2020/12/11 08:27:28;;;;;;;24.73;18.48;;;2.30;99.90;;;;;;5009536;28;20148;-75
2020/12/11 08:30:08;;;;;;;22.48;16.42;;;2.30;99.90;;;;;;5003809;28;20378;-68
2020/12/11 08:32:34;;;;;;;22.40;18.83;;;2.30;99.90;;;;;;5035583;28;20646;-75
2020/12/11 08:35:11;;;;;;;19.58;15.65;;;2.20;99.90;;;;;;5005260;28;20073;-73
2020/12/11 08:37:51;;;;;;;23.05;17.45;;;2.30;99.90;;;;;;5011264;28;20152;-73
2020/12/11 08:40:18;;;;;;;26.50;19.63;;;2.30;99.90;;;;;;5005466;28;20060;-71
2020/12/11 08:50:49;;;;;;;24.90;19.65;;;2.30;99.90;;;;;;5006301;28;20060;-70
2020/12/11 08:53:17;;;;;;;25.42;18.23;;;2.30;99.90;;;;;;5011081;28;20045;-66
2020/12/11 08:55:44;;;;;;;26.95;20.08;;;2.30;99.90;;;;;;5005358;28;20156;-70
2020/12/11 08:58:11;;;;;;;26.17;19.65;;;2.30;99.90;;;;;;5013363;28;20415;-68
2020/12/11 09:00:38;;;;;;;26.02;18.52;;;2.30;99.90;;;;;;5008734;28;20150;-70
2020/12/11 09:03:04;;;;;;;23.80;19.45;;;2.30;99.90;;;;;;5008602;28;20053;-69
2020/12/11 09:05:31;;;;;;;23.23;17.60;;;2.30;99.90;;;;;;5009926;28;20631;-68
2020/12/11 09:07:57;;;;;;;25.35;17.58;;;2.40;99.90;;;;;;5005310;28;20045;-68
2020/12/11 09:10:24;;;;;;;24.67;18.38;;;2.40;99.90;;;;;;5007307;28;20049;-70
2020/12/11 09:12:53;;;;;;;24.73;18.45;;;2.40;99.90;;;;;;5006822;28;20053;-70
2020/12/11 09:15:21;;;;;;;26.73;18.33;;;2.40;99.90;;;;;;5005753;28;20083;-67
2020/12/11 09:17:48;;;;;;;26.00;20.13;;;2.50;99.90;;;;;;5006046;28;20448;-69
2020/12/11 09:20:15;;;;;;;23.35;17.85;;;2.50;99.90;;;;;;5006678;28;20820;-72
2020/12/11 09:22:43;;;;;;;22.65;18.52;;;2.50;99.90;;;;;;5002684;28;20076;-70
2020/12/11 09:25:10;;;;;;;25.50;18.75;;;2.60;99.90;;;;;;5009763;28;20046;-69
2020/12/11 09:27:40;;;;;;;21.63;16.48;;;2.50;99.90;;;;;;5001691;28;21101;-72
2020/12/11 09:30:30;;;;;;;23.90;16.63;;;2.60;99.90;;;;;;5009561;28;20687;-69
2020/12/11 09:33:11;;;;;;;19.85;16.17;;;2.50;99.90;;;;;;5002824;28;20041;-67
2020/12/11 09:35:38;;;;;;;20.33;14.57;;;2.50;99.90;;;;;;5008070;28;20161;-66
2020/12/11 09:38:05;;;;;;;17.75;14.85;;;2.60;99.90;;;;;;5003218;28;20167;-73
2020/12/11 09:40:54;;;;;;;21.75;16.65;;;2.50;99.90;;;;;;5013075;28;20053;-67
2020/12/11 09:48:57;;;;;;;19.85;14.98;;;2.50;99.90;;;;;;5005627;28;20480;-69
2020/12/11 09:56:34;;;;;;;54.72;31.50;;;2.50;99.90;;;;;;5012465;28;20149;-68
2020/12/11 10:04:34;;;;;;;85.72;47.55;;;2.40;99.90;;;;;;5000916;28;20215;-69
2020/12/11 10:07:01;;;;;;;101.22;59.47;;;2.40;99.90;;;;;;5009424;28;20068;-69
2020/12/11 10:09:27;;;;;;;66.68;43.47;;;2.40;99.90;;;;;;5005695;28;20049;-71
2020/12/11 10:11:54;;;;;;;62.78;37.53;;;2.40;99.90;;;;;;5009753;28;20041;-69
2020/12/11 10:14:28;;;;;;;37.50;26.42;;;2.40;99.90;;;;;;5006156;28;20569;-69
2020/12/11 10:16:55;;;;;;;28.67;21.25;;;2.40;99.90;;;;;;5007559;28;20052;-66
2020/12/11 10:19:23;;;;;;;19.23;15.45;;;2.40;99.90;;;;;;5007978;28;20053;-70
2020/12/11 10:21:50;;;;;;;21.92;16.30;;;2.40;99.90;;;;;;5002783;28;20037;-71
2020/12/11 10:24:18;;;;;;;21.70;16.20;;;2.40;99.90;;;;;;5004539;28;20685;-72
2020/12/11 10:26:45;;;;;;;19.92;15.43;;;2.50;99.90;;;;;;5006737;28;20130;-68
2020/12/11 10:29:11;;;;;;;19.42;14.27;;;2.40;99.90;;;;;;5007338;28;20054;-67
2020/12/11 10:31:44;;;;;;;17.42;13.40;;;2.50;99.90;;;;;;5005124;28;20189;-66
2020/12/11 10:34:13;;;;;;;18.73;13.57;;;2.50;99.90;;;;;;5007820;28;20053;-69
2020/12/11 10:36:40;;;;;;;17.08;13.30;;;2.40;99.90;;;;;;5004097;28;20125;-72
2020/12/11 10:39:07;;;;;;;21.80;13.80;;;2.40;99.90;;;;;;5005102;28;20057;-70
2020/12/11 10:41:34;;;;;;;15.93;14.23;;;2.40;99.90;;;;;;5001618;28;20112;-66
2020/12/11 10:44:01;;;;;;;18.63;13.85;;;2.40;99.90;;;;;;5007032;28;20513;-68
2020/12/11 10:46:28;;;;;;;17.23;13.15;;;2.40;99.90;;;;;;5002760;28;20056;-71
2020/12/11 10:48:55;;;;;;;16.83;12.55;;;2.40;99.90;;;;;;5006881;28;20073;-72
2020/12/11 10:51:21;;;;;;;16.83;12.20;;;2.40;99.90;;;;;;5001738;28;20053;-68
2020/12/11 10:53:48;;;;;;;17.73;13.07;;;2.40;99.90;;;;;;5000987;28;20566;-69
2020/12/11 10:56:15;;;;;;;18.63;14.13;;;2.40;99.90;;;;;;5005243;28;20049;-72
2020/12/11 10:58:42;;;;;;;16.88;13.73;;;2.40;99.90;;;;;;5002438;28;20116;-70
2020/12/11 11:01:10;;;;;;;20.10;14.02;;;2.40;99.90;;;;;;5007537;28;20054;-67
2020/12/11 11:03:37;;;;;;;57.80;38.30;;;2.40;99.90;;;;;;5004363;28;20059;-70
2020/12/11 11:06:25;;;;;;;20.02;13.68;;;2.40;99.90;;;;;;5013694;28;20045;-72
2020/12/11 11:11:38;;;;;;;19.83;13.80;;;2.40;99.90;;;;;;5010979;28;20052;-68
2020/12/11 11:22:21;;;;;;;17.15;13.45;;;2.50;99.90;;;;;;5005182;28;20880;-69
2020/12/11 11:27:53;;;;;;;14.77;12.93;;;2.50;99.90;;;;;;5011393;28;20140;-67
2020/12/11 11:30:21;;;;;;;14.98;12.80;;;2.50;99.90;;;;;;5004047;28;20073;-71
2020/12/11 11:32:50;;;;;;;18.70;14.32;;;2.50;99.90;;;;;;5017811;28;20048;-68
2020/12/11 11:35:17;;;;;;;27.70;24.00;;;2.50;99.90;;;;;;5023937;28;20069;-70
2020/12/11 11:37:45;;;;;;;69.00;46.67;;;2.50;99.90;;;;;;5024597;28;20190;-68
2020/12/11 11:40:12;;;;;;;22.17;17.30;;;2.50;99.90;;;;;;5024958;28;20098;-70
2020/12/11 11:42:39;;;;;;;18.77;14.60;;;2.50;99.90;;;;;;5030178;28;20778;-69
2020/12/11 11:45:07;;;;;;;21.77;14.43;;;2.50;99.90;;;;;;5023803;28;20494;-72
2020/12/11 11:47:38;;;;;;;18.67;15.05;;;2.50;99.90;;;;;;5030320;28;20164;-72
2020/12/11 11:50:24;;;;;;;21.55;14.82;;;2.60;99.90;;;;;;5026021;28;20048;-66
2020/12/11 11:53:00;;;;;;;29.85;20.38;;;2.60;99.90;;;;;;5020855;28;20617;-72
2020/12/11 11:55:26;;;;;;;26.77;18.33;;;2.60;99.90;;;;;;5022579;28;20041;-66
2020/12/11 11:57:53;;;;;;;28.40;18.98;;;2.60;99.90;;;;;;5021277;28;20089;-66
2020/12/11 12:00:20;;;;;;;27.67;19.48;;;2.60;99.90;;;;;;5023030;28;20046;-69
2020/12/11 12:02:47;;;;;;;21.27;16.92;;;2.60;99.90;;;;;;5022930;28;20132;-69
2020/12/11 12:05:15;;;;;;;21.02;16.65;;;2.60;99.90;;;;;;5028926;28;20055;-69
2020/12/11 12:07:41;;;;;;;20.70;14.80;;;2.70;99.90;;;;;;5022488;28;20062;-72
2020/12/11 12:10:09;;;;;;;23.27;17.30;;;2.70;99.90;;;;;;5021032;28;20053;-69
2020/12/11 12:12:42;;;;;;;34.65;24.05;;;2.70;99.90;;;;;;5020661;28;20416;-70
2020/12/11 12:15:13;;;;;;;37.35;25.73;;;2.70;99.90;;;;;;5019014;28;20063;-69
2020/12/11 12:17:45;;;;;;;31.35;22.63;;;2.70;99.90;;;;;;5016102;28;20064;-67
2020/12/11 12:20:20;;;;;;;26.27;19.95;;;2.70;99.90;;;;;;5024183;28;20045;-74
2020/12/11 12:30:44;;;;;;;25.70;19.15;;;2.80;99.90;;;;;;5028822;28;20563;-68
2020/12/11 12:38:44;;;;;;;24.10;17.63;;;2.80;99.90;;;;;;5021594;28;20135;-70
2020/12/11 12:43:58;;;;;;;29.13;20.52;;;2.80;99.90;;;;;;5020260;28;20125;-75
2020/12/11 12:46:26;;;;;;;27.75;20.60;;;2.80;99.90;;;;;;5027317;28;20049;-70
2020/12/11 12:48:53;;;;;;;30.92;19.73;;;2.90;99.90;;;;;;5021280;28;20820;-72
2020/12/11 12:51:19;;;;;;;29.95;21.70;;;2.90;99.90;;;;;;5028646;28;20128;-69
2020/12/11 12:53:45;;;;;;;31.58;19.25;;;2.90;99.90;;;;;;5023760;28;20036;-66
2020/12/11 13:07:27;;;;;;;33.85;21.85;;;2.90;99.90;;;;;;5012831;28;20671;-71
2020/12/11 13:09:53;;;;;;;29.17;21.60;;;3.00;99.90;;;;;;5005799;28;20622;-74
2020/12/11 13:12:22;;;;;;;27.65;19.90;;;3.00;99.90;;;;;;5010045;28;20409;-72
2020/12/11 13:14:48;;;;;;;30.90;21.60;;;3.00;99.90;;;;;;5006704;28;20104;-72
2020/12/11 13:17:15;;;;;;;32.72;22.08;;;3.00;99.90;;;;;;5005113;28;20473;-76
2020/12/11 13:19:41;;;;;;;32.45;22.55;;;3.00;99.90;;;;;;5008640;28;20092;-68
2020/12/11 13:27:30;;;;;;;32.47;23.98;;;3.10;99.90;;;;;;5028007;28;20049;-72
2020/12/11 13:29:58;;;;;;;27.75;20.75;;;3.10;99.90;;;;;;5034562;28;20045;-69
2020/12/11 13:32:28;;;;;;;31.48;22.17;;;3.10;99.90;;;;;;5025116;28;20053;-72
2020/12/11 13:34:55;;;;;;;32.72;22.02;;;3.10;99.90;;;;;;5029742;28;20052;-70
2020/12/11 13:37:21;;;;;;;33.42;22.63;;;3.10;99.90;;;;;;5024071;28;20143;-75
2020/12/11 13:39:48;;;;;;;28.58;21.23;;;3.10;99.90;;;;;;5022795;28;20041;-73
2020/12/11 13:42:15;;;;;;;30.88;21.80;;;3.10;99.90;;;;;;5027517;28;20659;-68
2020/12/11 13:44:41;;;;;;;31.05;22.92;;;3.10;99.90;;;;;;5028302;28;20690;-74
2020/12/11 13:47:08;;;;;;;33.42;23.90;;;3.10;99.90;;;;;;5022935;28;20049;-71
2020/12/11 13:49:35;;;;;;;33.20;24.42;;;3.10;99.90;;;;;;5027677;28;20501;-69
2020/12/11 13:52:01;;;;;;;48.50;32.58;;;3.10;99.90;;;;;;5023429;28;20163;-77
2020/12/11 13:54:28;;;;;;;74.28;46.88;;;3.10;99.90;;;;;;5026505;28;20159;-68
2020/12/11 13:56:55;;;;;;;93.43;53.25;;;3.20;99.90;;;;;;5025847;28;20059;-77